sensor_id;sensor_type;location;lat;lon;timestamp;P1;durP1;ratioP1;P2;durP2;ratioP2
9005;SDS011;62284;50.702;7.140;2022-10-04T00:01:41;5.60;;;4.72;;
9005;SDS011;62284;50.702;7.140;2022-10-04T00:04:12;5.60;;;5.10;;
9005;SDS011;62284;50.702;7.140;2022-10-04T00:06:43;6.15;;;5.55;;
9005;SDS011;62284;50.702;7.140;2022-10-04T00:09:14;6.00;;;5.40;;
9005;SDS011;62284;50.702;7.140;2022-10-04T00:11:45;7.97;;;5.60;;
9005;SDS011;62284;50.702;7.140;2022-10-04T00:14:14;6.00;;;5.10;;
9005;SDS011;62284;50.702;7.140;2022-10-04T00:16:44;6.32;;;5.63;;
9005;SDS011;62284;50.702;7.140;2022-10-04T00:19:22;7.80;;;5.45;;
9005;SDS011;62284;50.702;7.140;2022-10-04T00:33:38;6.55;;;5.80;;
9005;SDS011;62284;50.702;7.140;2022-10-04T00:39:17;7.38;;;5.70;;
9005;SDS011;62284;50.702;7.140;2022-10-04T00:42:03;6.43;;;5.50;;
9005;SDS011;62284;50.702;7.140;2022-10-04T00:44:40;6.30;;;5.70;;
9005;SDS011;62284;50.702;7.140;2022-10-04T00:47:15;6.45;;;5.88;;
9005;SDS011;62284;50.702;7.140;2022-10-04T00:49:48;5.80;;;5.28;;
9005;SDS011;62284;50.702;7.140;2022-10-04T00:52:21;8.32;;;6.07;;
9005;SDS011;62284;50.702;7.140;2022-10-04T00:54:52;6.80;;;6.03;;
9005;SDS011;62284;50.702;7.140;2022-10-04T00:57:23;8.35;;;6.43;;
9005;SDS011;62284;50.702;7.140;2022-10-04T00:59:54;6.32;;;5.72;;
9005;SDS011;62284;50.702;7.140;2022-10-04T01:02:27;8.60;;;6.40;;
9005;SDS011;62284;50.702;7.140;2022-10-04T01:04:58;5.70;;;5.25;;
9005;SDS011;62284;50.702;7.140;2022-10-04T01:07:28;6.55;;;5.65;;
9005;SDS011;62284;50.702;7.140;2022-10-04T01:09:59;6.03;;;5.43;;
9005;SDS011;62284;50.702;7.140;2022-10-04T01:12:35;7.43;;;5.82;;
9005;SDS011;62284;50.702;7.140;2022-10-04T01:15:10;6.30;;;5.55;;
9005;SDS011;62284;50.702;7.140;2022-10-04T01:20:53;6.15;;;5.55;;
9005;SDS011;62284;50.702;7.140;2022-10-04T01:23:34;6.65;;;6.05;;
9005;SDS011;62284;50.702;7.140;2022-10-04T01:29:04;8.18;;;6.28;;
9005;SDS011;62284;50.702;7.140;2022-10-04T01:31:34;7.28;;;6.57;;
9005;SDS011;62284;50.702;7.140;2022-10-04T01:34:03;7.38;;;6.65;;
9005;SDS011;62284;50.702;7.140;2022-10-04T01:36:31;7.20;;;6.50;;
9005;SDS011;62284;50.702;7.140;2022-10-04T01:39:00;8.13;;;7.13;;
9005;SDS011;62284;50.702;7.140;2022-10-04T01:41:29;7.45;;;6.68;;
9005;SDS011;62284;50.702;7.140;2022-10-04T01:44:03;7.07;;;6.45;;
9005;SDS011;62284;50.702;7.140;2022-10-04T01:46:35;8.05;;;7.35;;
9005;SDS011;62284;50.702;7.140;2022-10-04T01:49:15;8.27;;;7.47;;
9005;SDS011;62284;50.702;7.140;2022-10-04T01:51:46;7.78;;;7.07;;
9005;SDS011;62284;50.702;7.140;2022-10-04T01:54:22;8.57;;;7.78;;
9005;SDS011;62284;50.702;7.140;2022-10-04T01:56:58;8.32;;;7.38;;
9005;SDS011;62284;50.702;7.140;2022-10-04T01:59:30;7.63;;;6.93;;
9005;SDS011;62284;50.702;7.140;2022-10-04T02:02:03;8.77;;;7.53;;
9005;SDS011;62284;50.702;7.140;2022-10-04T02:04:34;9.60;;;8.07;;
9005;SDS011;62284;50.702;7.140;2022-10-04T02:07:10;8.40;;;7.65;;
9005;SDS011;62284;50.702;7.140;2022-10-04T02:09:40;9.65;;;8.55;;
9005;SDS011;62284;50.702;7.140;2022-10-04T02:12:13;8.70;;;7.90;;
9005;SDS011;62284;50.702;7.140;2022-10-04T02:14:42;9.48;;;8.68;;
9005;SDS011;62284;50.702;7.140;2022-10-04T02:17:16;8.32;;;7.70;;
9005;SDS011;62284;50.702;7.140;2022-10-04T02:19:46;8.68;;;7.97;;
9005;SDS011;62284;50.702;7.140;2022-10-04T02:22:14;9.30;;;8.50;;
9005;SDS011;62284;50.702;7.140;2022-10-04T02:24:43;8.25;;;7.50;;
9005;SDS011;62284;50.702;7.140;2022-10-04T02:27:12;9.10;;;8.23;;
9005;SDS011;62284;50.702;7.140;2022-10-04T02:29:39;9.30;;;8.50;;
9005;SDS011;62284;50.702;7.140;2022-10-04T02:32:07;8.23;;;7.53;;
9005;SDS011;62284;50.702;7.140;2022-10-04T02:34:52;9.25;;;8.38;;
9005;SDS011;62284;50.702;7.140;2022-10-04T02:37:21;9.05;;;8.25;;
9005;SDS011;62284;50.702;7.140;2022-10-04T02:39:52;9.55;;;8.13;;
9005;SDS011;62284;50.702;7.140;2022-10-04T02:42:26;9.60;;;8.70;;
9005;SDS011;62284;50.702;7.140;2022-10-04T02:45:04;10.43;;;9.27;;
9005;SDS011;62284;50.702;7.140;2022-10-04T02:47:41;10.35;;;9.45;;
9005;SDS011;62284;50.702;7.140;2022-10-04T02:50:20;10.23;;;9.20;;
9005;SDS011;62284;50.702;7.140;2022-10-04T02:52:54;10.35;;;9.27;;
9005;SDS011;62284;50.702;7.140;2022-10-04T02:55:28;9.98;;;9.07;;
9005;SDS011;62284;50.702;7.140;2022-10-04T02:57:56;11.00;;;9.48;;
9005;SDS011;62284;50.702;7.140;2022-10-04T03:00:25;10.05;;;9.18;;
9005;SDS011;62284;50.702;7.140;2022-10-04T03:03:10;9.73;;;8.77;;
9005;SDS011;62284;50.702;7.140;2022-10-04T03:05:42;9.15;;;8.35;;
9005;SDS011;62284;50.702;7.140;2022-10-04T03:08:12;11.50;;;10.30;;
9005;SDS011;62284;50.702;7.140;2022-10-04T03:10:42;10.35;;;9.48;;
9005;SDS011;62284;50.702;7.140;2022-10-04T03:13:09;10.63;;;9.57;;
9005;SDS011;62284;50.702;7.140;2022-10-04T03:15:40;10.25;;;9.30;;
9005;SDS011;62284;50.702;7.140;2022-10-04T03:18:08;10.60;;;9.75;;
9005;SDS011;62284;50.702;7.140;2022-10-04T03:20:36;9.60;;;8.80;;
9005;SDS011;62284;50.702;7.140;2022-10-04T03:23:04;10.52;;;9.57;;
9005;SDS011;62284;50.702;7.140;2022-10-04T03:25:44;10.68;;;9.70;;
9005;SDS011;62284;50.702;7.140;2022-10-04T03:28:17;11.38;;;10.27;;
9005;SDS011;62284;50.702;7.140;2022-10-04T03:30:44;13.45;;;10.23;;
9005;SDS011;62284;50.702;7.140;2022-10-04T03:33:17;10.45;;;9.57;;
9005;SDS011;62284;50.702;7.140;2022-10-04T03:35:48;11.25;;;10.27;;
9005;SDS011;62284;50.702;7.140;2022-10-04T03:38:19;10.60;;;9.68;;
9005;SDS011;62284;50.702;7.140;2022-10-04T03:40:50;10.70;;;9.80;;
9005;SDS011;62284;50.702;7.140;2022-10-04T03:43:21;11.55;;;10.57;;
9005;SDS011;62284;50.702;7.140;2022-10-04T03:45:50;11.43;;;10.43;;
9005;SDS011;62284;50.702;7.140;2022-10-04T03:48:21;12.00;;;10.90;;
9005;SDS011;62284;50.702;7.140;2022-10-04T03:50:53;11.13;;;10.30;;
9005;SDS011;62284;50.702;7.140;2022-10-04T03:53:26;10.90;;;10.05;;
9005;SDS011;62284;50.702;7.140;2022-10-04T03:55:57;10.85;;;9.95;;
9005;SDS011;62284;50.702;7.140;2022-10-04T03:58:25;11.48;;;10.50;;
9005;SDS011;62284;50.702;7.140;2022-10-04T04:01:02;10.95;;;9.95;;
9005;SDS011;62284;50.702;7.140;2022-10-04T04:03:40;10.73;;;9.82;;
9005;SDS011;62284;50.702;7.140;2022-10-04T04:06:22;10.77;;;9.88;;
9005;SDS011;62284;50.702;7.140;2022-10-04T04:08:52;10.32;;;9.43;;
9005;SDS011;62284;50.702;7.140;2022-10-04T04:11:22;10.23;;;9.32;;
9005;SDS011;62284;50.702;7.140;2022-10-04T04:13:53;9.30;;;8.60;;
9005;SDS011;62284;50.702;7.140;2022-10-04T04:16:27;8.68;;;7.97;;
9005;SDS011;62284;50.702;7.140;2022-10-04T04:18:56;8.68;;;7.88;;
9005;SDS011;62284;50.702;7.140;2022-10-04T04:21:26;11.00;;;10.07;;
9005;SDS011;62284;50.702;7.140;2022-10-04T04:23:54;10.02;;;9.23;;
9005;SDS011;62284;50.702;7.140;2022-10-04T04:26:27;9.73;;;8.90;;
9005;SDS011;62284;50.702;7.140;2022-10-04T04:29:01;9.57;;;8.88;;
9005;SDS011;62284;50.702;7.140;2022-10-04T04:31:32;10.48;;;9.68;;
9005;SDS011;62284;50.702;7.140;2022-10-04T04:34:04;10.23;;;9.32;;
9005;SDS011;62284;50.702;7.140;2022-10-04T04:36:40;9.60;;;8.80;;
9005;SDS011;62284;50.702;7.140;2022-10-04T04:39:08;9.35;;;8.55;;
9005;SDS011;62284;50.702;7.140;2022-10-04T04:41:58;9.75;;;9.05;;
9005;SDS011;62284;50.702;7.140;2022-10-04T04:44:25;9.57;;;8.77;;
9005;SDS011;62284;50.702;7.140;2022-10-04T04:46:53;10.75;;;9.85;;
9005;SDS011;62284;50.702;7.140;2022-10-04T04:49:20;9.48;;;8.63;;
9005;SDS011;62284;50.702;7.140;2022-10-04T04:51:49;9.55;;;8.82;;
9005;SDS011;62284;50.702;7.140;2022-10-04T04:54:17;10.10;;;9.35;;
9005;SDS011;62284;50.702;7.140;2022-10-04T04:56:46;9.70;;;9.00;;
9005;SDS011;62284;50.702;7.140;2022-10-04T04:59:17;8.75;;;8.05;;
9005;SDS011;62284;50.702;7.140;2022-10-04T05:01:46;9.20;;;8.50;;
9005;SDS011;62284;50.702;7.140;2022-10-04T05:04:15;9.73;;;9.02;;
9005;SDS011;62284;50.702;7.140;2022-10-04T05:06:44;11.02;;;10.05;;
9005;SDS011;62284;50.702;7.140;2022-10-04T05:09:23;9.50;;;8.68;;
9005;SDS011;62284;50.702;7.140;2022-10-04T05:11:51;8.93;;;8.18;;
9005;SDS011;62284;50.702;7.140;2022-10-04T05:14:23;8.48;;;7.78;;
9005;SDS011;62284;50.702;7.140;2022-10-04T05:16:50;9.90;;;9.10;;
9005;SDS011;62284;50.702;7.140;2022-10-04T05:19:19;8.95;;;8.25;;
9005;SDS011;62284;50.702;7.140;2022-10-04T05:21:50;8.80;;;8.10;;
9005;SDS011;62284;50.702;7.140;2022-10-04T05:24:20;7.63;;;6.85;;
9005;SDS011;62284;50.702;7.140;2022-10-04T05:26:50;9.18;;;8.48;;
9005;SDS011;62284;50.702;7.140;2022-10-04T05:29:20;9.27;;;8.48;;
9005;SDS011;62284;50.702;7.140;2022-10-04T05:31:55;9.25;;;8.45;;
9005;SDS011;62284;50.702;7.140;2022-10-04T05:34:30;9.52;;;8.73;;
9005;SDS011;62284;50.702;7.140;2022-10-04T05:39:58;9.05;;;8.25;;
9005;SDS011;62284;50.702;7.140;2022-10-04T05:42:34;8.15;;;7.45;;
9005;SDS011;62284;50.702;7.140;2022-10-04T05:45:13;8.35;;;7.65;;
9005;SDS011;62284;50.702;7.140;2022-10-04T05:47:43;8.40;;;7.55;;
9005;SDS011;62284;50.702;7.140;2022-10-04T05:50:13;8.57;;;7.88;;
9005;SDS011;62284;50.702;7.140;2022-10-04T05:52:43;8.05;;;7.38;;
9005;SDS011;62284;50.702;7.140;2022-10-04T05:55:15;7.75;;;7.15;;
9005;SDS011;62284;50.702;7.140;2022-10-04T05:57:48;7.65;;;7.07;;
9005;SDS011;62284;50.702;7.140;2022-10-04T06:00:26;8.25;;;7.55;;
9005;SDS011;62284;50.702;7.140;2022-10-04T06:03:11;7.75;;;7.15;;
9005;SDS011;62284;50.702;7.140;2022-10-04T06:05:50;8.43;;;7.72;;
9005;SDS011;62284;50.702;7.140;2022-10-04T06:08:25;7.68;;;7.07;;
9005;SDS011;62284;50.702;7.140;2022-10-04T06:11:03;9.13;;;8.27;;
9005;SDS011;62284;50.702;7.140;2022-10-04T06:13:44;8.57;;;7.90;;
9005;SDS011;62284;50.702;7.140;2022-10-04T06:16:25;8.60;;;7.90;;
9005;SDS011;62284;50.702;7.140;2022-10-04T06:19:16;8.23;;;7.55;;
9005;SDS011;62284;50.702;7.140;2022-10-04T06:22:13;7.78;;;7.18;;
9005;SDS011;62284;50.702;7.140;2022-10-04T06:24:42;7.65;;;6.97;;
9005;SDS011;62284;50.702;7.140;2022-10-04T06:27:14;8.15;;;7.45;;
9005;SDS011;62284;50.702;7.140;2022-10-04T06:29:46;9.25;;;8.43;;
9005;SDS011;62284;50.702;7.140;2022-10-04T06:41:21;8.98;;;8.07;;
9005;SDS011;62284;50.702;7.140;2022-10-04T06:47:04;9.40;;;8.60;;
9005;SDS011;62284;50.702;7.140;2022-10-04T06:49:45;8.60;;;7.90;;
9005;SDS011;62284;50.702;7.140;2022-10-04T06:52:32;7.93;;;7.20;;
9005;SDS011;62284;50.702;7.140;2022-10-04T06:58:12;7.95;;;7.35;;
9005;SDS011;62284;50.702;7.140;2022-10-04T07:00:58;8.70;;;8.00;;
9005;SDS011;62284;50.702;7.140;2022-10-04T07:03:30;8.88;;;8.23;;
9005;SDS011;62284;50.702;7.140;2022-10-04T07:06:04;9.13;;;8.43;;
9005;SDS011;62284;50.702;7.140;2022-10-04T07:08:35;9.00;;;8.10;;
9005;SDS011;62284;50.702;7.140;2022-10-04T07:11:10;9.98;;;9.07;;
9005;SDS011;62284;50.702;7.140;2022-10-04T07:13:42;9.13;;;8.43;;
9005;SDS011;62284;50.702;7.140;2022-10-04T07:16:31;10.15;;;8.25;;
9005;SDS011;62284;50.702;7.140;2022-10-04T07:19:06;8.02;;;7.53;;
9005;SDS011;62284;50.702;7.140;2022-10-04T07:21:48;9.43;;;8.63;;
9005;SDS011;62284;50.702;7.140;2022-10-04T07:24:22;9.15;;;8.35;;
9005;SDS011;62284;50.702;7.140;2022-10-04T07:26:53;8.95;;;8.25;;
9005;SDS011;62284;50.702;7.140;2022-10-04T07:29:23;8.85;;;7.95;;
9005;SDS011;62284;50.702;7.140;2022-10-04T07:32:01;9.15;;;8.35;;
9005;SDS011;62284;50.702;7.140;2022-10-04T07:34:32;9.32;;;8.63;;
9005;SDS011;62284;50.702;7.140;2022-10-04T07:37:06;10.77;;;9.88;;
9005;SDS011;62284;50.702;7.140;2022-10-04T07:39:39;9.30;;;8.55;;
9005;SDS011;62284;50.702;7.140;2022-10-04T07:42:17;8.63;;;7.93;;
9005;SDS011;62284;50.702;7.140;2022-10-04T07:44:53;9.35;;;8.55;;
9005;SDS011;62284;50.702;7.140;2022-10-04T07:47:39;8.60;;;8.00;;
9005;SDS011;62284;50.702;7.140;2022-10-04T07:50:21;9.48;;;8.70;;
9005;SDS011;62284;50.702;7.140;2022-10-04T07:52:50;8.25;;;7.60;;
9005;SDS011;62284;50.702;7.140;2022-10-04T07:55:25;7.97;;;7.32;;
9005;SDS011;62284;50.702;7.140;2022-10-04T07:58:04;7.60;;;7.00;;
9005;SDS011;62284;50.702;7.140;2022-10-04T08:00:43;6.60;;;6.10;;
9005;SDS011;62284;50.702;7.140;2022-10-04T08:03:19;7.10;;;6.60;;
9005;SDS011;62284;50.702;7.140;2022-10-04T08:06:11;7.25;;;6.65;;
9005;SDS011;62284;50.702;7.140;2022-10-04T08:08:44;6.97;;;6.47;;
9005;SDS011;62284;50.702;7.140;2022-10-04T08:11:27;6.68;;;6.18;;
9005;SDS011;62284;50.702;7.140;2022-10-04T08:14:07;6.18;;;5.68;;
9005;SDS011;62284;50.702;7.140;2022-10-04T08:16:48;6.45;;;5.85;;
9005;SDS011;62284;50.702;7.140;2022-10-04T08:19:29;5.82;;;5.32;;
9005;SDS011;62284;50.702;7.140;2022-10-04T08:22:12;5.93;;;5.53;;
9005;SDS011;62284;50.702;7.140;2022-10-04T08:24:53;5.95;;;5.55;;
9005;SDS011;62284;50.702;7.140;2022-10-04T08:27:34;5.60;;;5.00;;
9005;SDS011;62284;50.702;7.140;2022-10-04T08:30:31;5.85;;;5.35;;
9005;SDS011;62284;50.702;7.140;2022-10-04T08:33:16;5.40;;;4.90;;
9005;SDS011;62284;50.702;7.140;2022-10-04T08:35:54;6.45;;;5.78;;
9005;SDS011;62284;50.702;7.140;2022-10-04T08:56:47;5.50;;;5.00;;
9005;SDS011;62284;50.702;7.140;2022-10-04T09:02:34;5.00;;;4.60;;
9005;SDS011;62284;50.702;7.140;2022-10-04T09:05:28;5.85;;;5.25;;
9005;SDS011;62284;50.702;7.140;2022-10-04T09:08:15;5.88;;;5.28;;
9005;SDS011;62284;50.702;7.140;2022-10-04T09:10:59;5.43;;;4.93;;
9005;SDS011;62284;50.702;7.140;2022-10-04T09:13:39;5.40;;;4.90;;
9005;SDS011;62284;50.702;7.140;2022-10-04T09:16:21;4.85;;;4.40;;
9005;SDS011;62284;50.702;7.140;2022-10-04T09:18:50;5.00;;;4.60;;
9005;SDS011;62284;50.702;7.140;2022-10-04T09:21:22;5.68;;;5.00;;
9005;SDS011;62284;50.702;7.140;2022-10-04T09:26:42;5.10;;;4.60;;
9005;SDS011;62284;50.702;7.140;2022-10-04T09:29:23;4.50;;;4.10;;
9005;SDS011;62284;50.702;7.140;2022-10-04T09:35:26;5.05;;;4.65;;
9005;SDS011;62284;50.702;7.140;2022-10-04T09:38:20;5.85;;;5.25;;
9005;SDS011;62284;50.702;7.140;2022-10-04T09:47:09;4.68;;;4.28;;
9005;SDS011;62284;50.702;7.140;2022-10-04T09:50:00;4.60;;;4.18;;
9005;SDS011;62284;50.702;7.140;2022-10-04T09:52:43;5.40;;;4.53;;
9005;SDS011;62284;50.702;7.140;2022-10-04T09:55:28;4.70;;;4.22;;
9005;SDS011;62284;50.702;7.140;2022-10-04T10:01:17;6.47;;;4.22;;
9005;SDS011;62284;50.702;7.140;2022-10-04T10:04:04;5.32;;;4.00;;
9005;SDS011;62284;50.702;7.140;2022-10-04T10:06:59;4.22;;;3.75;;
9005;SDS011;62284;50.702;7.140;2022-10-04T10:09:39;4.70;;;3.50;;
9005;SDS011;62284;50.702;7.140;2022-10-04T10:12:36;6.13;;;3.92;;
9005;SDS011;62284;50.702;7.140;2022-10-04T10:15:41;3.67;;;3.38;;
9005;SDS011;62284;50.702;7.140;2022-10-04T10:18:23;4.25;;;3.85;;
9005;SDS011;62284;50.702;7.140;2022-10-04T10:21:08;4.05;;;3.60;;
9005;SDS011;62284;50.702;7.140;2022-10-04T10:30:13;4.45;;;3.38;;
9005;SDS011;62284;50.702;7.140;2022-10-04T10:33:01;6.00;;;3.22;;
9005;SDS011;62284;50.702;7.140;2022-10-04T10:35:46;3.38;;;3.08;;
9005;SDS011;62284;50.702;7.140;2022-10-04T10:38:43;3.00;;;2.33;;
9005;SDS011;62284;50.702;7.140;2022-10-04T10:44:30;2.85;;;2.63;;
9005;SDS011;62284;50.702;7.140;2022-10-04T10:47:17;3.53;;;2.85;;
9005;SDS011;62284;50.702;7.140;2022-10-04T10:50:00;4.18;;;3.20;;
9005;SDS011;62284;50.702;7.140;2022-10-04T10:56:10;3.00;;;2.67;;
9005;SDS011;62284;50.702;7.140;2022-10-04T10:59:25;3.88;;;3.10;;
9005;SDS011;62284;50.702;7.140;2022-10-04T11:05:47;3.40;;;2.67;;
9005;SDS011;62284;50.702;7.140;2022-10-04T11:09:00;3.45;;;2.40;;
9005;SDS011;62284;50.702;7.140;2022-10-04T11:15:37;4.15;;;2.80;;
9005;SDS011;62284;50.702;7.140;2022-10-04T11:18:18;2.83;;;2.63;;
9005;SDS011;62284;50.702;7.140;2022-10-04T11:21:33;3.85;;;2.90;;
9005;SDS011;62284;50.702;7.140;2022-10-04T11:27:21;3.13;;;2.70;;
9005;SDS011;62284;50.702;7.140;2022-10-04T11:30:03;3.05;;;2.83;;
9005;SDS011;62284;50.702;7.140;2022-10-04T11:36:04;3.38;;;2.80;;
9005;SDS011;62284;50.702;7.140;2022-10-04T11:39:05;3.53;;;2.90;;
9005;SDS011;62284;50.702;7.140;2022-10-04T11:41:52;2.88;;;2.40;;
9005;SDS011;62284;50.702;7.140;2022-10-04T11:44:32;4.43;;;2.97;;
9005;SDS011;62284;50.702;7.140;2022-10-04T11:47:37;2.95;;;2.75;;
9005;SDS011;62284;50.702;7.140;2022-10-04T11:59:08;2.72;;;2.45;;
9005;SDS011;62284;50.702;7.140;2022-10-04T12:05:02;3.22;;;2.55;;
9005;SDS011;62284;50.702;7.140;2022-10-04T12:08:00;2.88;;;2.30;;
9005;SDS011;62284;50.702;7.140;2022-10-04T12:10:39;3.38;;;2.70;;
9005;SDS011;62284;50.702;7.140;2022-10-04T12:16:21;3.95;;;2.58;;
9005;SDS011;62284;50.702;7.140;2022-10-04T12:31:23;2.55;;;2.35;;
9005;SDS011;62284;50.702;7.140;2022-10-04T12:33:57;3.90;;;2.55;;
9005;SDS011;62284;50.702;7.140;2022-10-04T12:36:30;1.98;;;1.75;;
9005;SDS011;62284;50.702;7.140;2022-10-04T12:39:12;4.28;;;2.47;;
9005;SDS011;62284;50.702;7.140;2022-10-04T12:41:50;2.33;;;2.08;;
9005;SDS011;62284;50.702;7.140;2022-10-04T12:44:28;2.88;;;2.40;;
9005;SDS011;62284;50.702;7.140;2022-10-04T12:47:26;2.58;;;2.28;;
9005;SDS011;62284;50.702;7.140;2022-10-04T12:50:05;4.90;;;3.00;;
9005;SDS011;62284;50.702;7.140;2022-10-04T12:52:40;3.03;;;2.30;;
9005;SDS011;62284;50.702;7.140;2022-10-04T12:55:20;2.20;;;2.05;;
9005;SDS011;62284;50.702;7.140;2022-10-04T12:58:04;2.65;;;2.20;;
9005;SDS011;62284;50.702;7.140;2022-10-04T13:00:39;2.70;;;2.50;;
9005;SDS011;62284;50.702;7.140;2022-10-04T13:03:15;2.75;;;2.08;;
9005;SDS011;62284;50.702;7.140;2022-10-04T13:05:54;3.22;;;2.60;;
9005;SDS011;62284;50.702;7.140;2022-10-04T13:08:33;2.55;;;2.05;;
9005;SDS011;62284;50.702;7.140;2022-10-04T13:11:18;3.40;;;2.50;;
9005;SDS011;62284;50.702;7.140;2022-10-04T13:13:54;2.60;;;2.40;;
9005;SDS011;62284;50.702;7.140;2022-10-04T13:16:59;4.03;;;2.45;;
9005;SDS011;62284;50.702;7.140;2022-10-04T13:19:33;2.92;;;2.50;;
9005;SDS011;62284;50.702;7.140;2022-10-04T13:22:11;3.45;;;2.47;;
9005;SDS011;62284;50.702;7.140;2022-10-04T13:24:51;3.30;;;2.08;;
9005;SDS011;62284;50.702;7.140;2022-10-04T13:27:30;2.83;;;2.20;;
9005;SDS011;62284;50.702;7.140;2022-10-04T13:30:05;3.97;;;2.38;;
9005;SDS011;62284;50.702;7.140;2022-10-04T13:32:41;2.08;;;1.70;;
9005;SDS011;62284;50.702;7.140;2022-10-04T13:35:13;2.65;;;2.13;;
9005;SDS011;62284;50.702;7.140;2022-10-04T13:37:48;4.05;;;2.05;;
9005;SDS011;62284;50.702;7.140;2022-10-04T13:40:32;3.90;;;2.17;;
9005;SDS011;62284;50.702;7.140;2022-10-04T13:43:28;2.95;;;2.28;;
9005;SDS011;62284;50.702;7.140;2022-10-04T13:46:21;3.58;;;2.50;;
9005;SDS011;62284;50.702;7.140;2022-10-04T13:48:56;2.70;;;2.13;;
9005;SDS011;62284;50.702;7.140;2022-10-04T13:51:39;2.45;;;2.25;;
9005;SDS011;62284;50.702;7.140;2022-10-04T13:54:16;2.90;;;2.22;;
9005;SDS011;62284;50.702;7.140;2022-10-04T13:57:16;2.88;;;2.40;;
9005;SDS011;62284;50.702;7.140;2022-10-04T13:59:52;4.65;;;2.20;;
9005;SDS011;62284;50.702;7.140;2022-10-04T14:05:28;3.47;;;2.75;;
9005;SDS011;62284;50.702;7.140;2022-10-04T14:11:41;2.92;;;2.25;;
9005;SDS011;62284;50.702;7.140;2022-10-04T14:14:31;4.78;;;2.38;;
9005;SDS011;62284;50.702;7.140;2022-10-04T14:24:01;3.53;;;2.20;;
9005;SDS011;62284;50.702;7.140;2022-10-04T14:27:11;2.85;;;2.17;;
9005;SDS011;62284;50.702;7.140;2022-10-04T14:30:10;3.28;;;2.00;;
9005;SDS011;62284;50.702;7.140;2022-10-04T14:35:52;3.30;;;2.25;;
9005;SDS011;62284;50.702;7.140;2022-10-04T14:38:37;3.15;;;2.40;;
9005;SDS011;62284;50.702;7.140;2022-10-04T14:50:44;3.08;;;2.22;;
9005;SDS011;62284;50.702;7.140;2022-10-04T14:53:24;2.55;;;2.03;;
9005;SDS011;62284;50.702;7.140;2022-10-04T14:56:02;7.13;;;1.98;;
9005;SDS011;62284;50.702;7.140;2022-10-04T14:58:52;5.35;;;2.38;;
9005;SDS011;62284;50.702;7.140;2022-10-04T15:01:28;4.55;;;2.67;;
9005;SDS011;62284;50.702;7.140;2022-10-04T15:04:02;3.08;;;2.10;;
9005;SDS011;62284;50.702;7.140;2022-10-04T15:06:40;3.15;;;2.00;;
9005;SDS011;62284;50.702;7.140;2022-10-04T15:09:28;2.38;;;2.10;;
9005;SDS011;62284;50.702;7.140;2022-10-04T15:15:30;2.47;;;1.85;;
9005;SDS011;62284;50.702;7.140;2022-10-04T15:18:03;3.92;;;2.28;;
9005;SDS011;62284;50.702;7.140;2022-10-04T15:20:46;2.83;;;2.25;;
9005;SDS011;62284;50.702;7.140;2022-10-04T15:23:25;1.75;;;1.63;;
9005;SDS011;62284;50.702;7.140;2022-10-04T15:25:59;4.60;;;1.92;;
9005;SDS011;62284;50.702;7.140;2022-10-04T15:28:37;2.10;;;1.90;;
9005;SDS011;62284;50.702;7.140;2022-10-04T15:31:17;3.50;;;2.05;;
9005;SDS011;62284;50.702;7.140;2022-10-04T15:33:54;3.30;;;2.25;;
9005;SDS011;62284;50.702;7.140;2022-10-04T15:36:40;2.28;;;1.75;;
9005;SDS011;62284;50.702;7.140;2022-10-04T15:39:32;3.42;;;2.58;;
9005;SDS011;62284;50.702;7.140;2022-10-04T15:42:11;2.30;;;2.08;;
9005;SDS011;62284;50.702;7.140;2022-10-04T15:44:54;2.10;;;1.90;;
9005;SDS011;62284;50.702;7.140;2022-10-04T15:47:48;4.60;;;2.50;;
9005;SDS011;62284;50.702;7.140;2022-10-04T15:50:23;4.50;;;2.83;;
9005;SDS011;62284;50.702;7.140;2022-10-04T15:53:20;2.47;;;2.22;;
9005;SDS011;62284;50.702;7.140;2022-10-04T15:56:09;3.15;;;2.28;;
9005;SDS011;62284;50.702;7.140;2022-10-04T16:05:02;4.60;;;2.45;;
9005;SDS011;62284;50.702;7.140;2022-10-04T16:07:50;2.53;;;2.30;;
9005;SDS011;62284;50.702;7.140;2022-10-04T16:13:45;2.90;;;2.30;;
9005;SDS011;62284;50.702;7.140;2022-10-04T16:16:32;7.03;;;2.30;;
9005;SDS011;62284;50.702;7.140;2022-10-04T16:19:28;3.95;;;2.45;;
9005;SDS011;62284;50.702;7.140;2022-10-04T16:22:10;3.20;;;2.63;;
9005;SDS011;62284;50.702;7.140;2022-10-04T16:24:44;4.22;;;2.75;;
9005;SDS011;62284;50.702;7.140;2022-10-04T16:27:25;3.45;;;2.38;;
9005;SDS011;62284;50.702;7.140;2022-10-04T16:30:24;3.42;;;2.88;;
9005;SDS011;62284;50.702;7.140;2022-10-04T16:33:01;3.13;;;2.80;;
9005;SDS011;62284;50.702;7.140;2022-10-04T16:35:49;4.07;;;3.10;;
9005;SDS011;62284;50.702;7.140;2022-10-04T16:38:31;3.20;;;2.90;;
9005;SDS011;62284;50.702;7.140;2022-10-04T16:41:05;4.75;;;2.88;;
9005;SDS011;62284;50.702;7.140;2022-10-04T16:43:36;3.45;;;3.17;;
9005;SDS011;62284;50.702;7.140;2022-10-04T16:46:18;3.35;;;2.60;;
9005;SDS011;62284;50.702;7.140;2022-10-04T16:48:51;4.97;;;2.70;;
9005;SDS011;62284;50.702;7.140;2022-10-04T16:51:25;2.65;;;2.45;;
9005;SDS011;62284;50.702;7.140;2022-10-04T16:54:25;4.13;;;3.25;;
9005;SDS011;62284;50.702;7.140;2022-10-04T16:57:14;3.30;;;3.00;;
9005;SDS011;62284;50.702;7.140;2022-10-04T16:59:50;4.32;;;3.65;;
9005;SDS011;62284;50.702;7.140;2022-10-04T17:05:30;3.65;;;3.35;;
9005;SDS011;62284;50.702;7.140;2022-10-04T17:11:26;3.50;;;2.83;;
9005;SDS011;62284;50.702;7.140;2022-10-04T17:14:19;2.67;;;2.47;;
9005;SDS011;62284;50.702;7.140;2022-10-04T17:16:58;3.15;;;2.50;;
9005;SDS011;62284;50.702;7.140;2022-10-04T17:19:33;2.47;;;2.28;;
9005;SDS011;62284;50.702;7.140;2022-10-04T17:22:11;2.45;;;2.25;;
9005;SDS011;62284;50.702;7.140;2022-10-04T17:24:51;3.83;;;2.05;;
9005;SDS011;62284;50.702;7.140;2022-10-04T17:27:40;2.58;;;1.67;;
9005;SDS011;62284;50.702;7.140;2022-10-04T17:30:13;1.90;;;1.80;;
9005;SDS011;62284;50.702;7.140;2022-10-04T17:32:49;2.25;;;2.03;;
9005;SDS011;62284;50.702;7.140;2022-10-04T17:35:50;2.85;;;2.00;;
9005;SDS011;62284;50.702;7.140;2022-10-04T17:38:34;1.92;;;1.83;;
9005;SDS011;62284;50.702;7.140;2022-10-04T17:41:14;2.30;;;2.10;;
9005;SDS011;62284;50.702;7.140;2022-10-04T17:43:57;2.60;;;2.40;;
9005;SDS011;62284;50.702;7.140;2022-10-04T17:46:38;3.20;;;2.90;;
9005;SDS011;62284;50.702;7.140;2022-10-04T17:49:14;3.47;;;3.15;;
9005;SDS011;62284;50.702;7.140;2022-10-04T17:52:11;3.00;;;2.80;;
9005;SDS011;62284;50.702;7.140;2022-10-04T17:55:11;3.40;;;3.13;;
9005;SDS011;62284;50.702;7.140;2022-10-04T17:57:44;3.97;;;3.55;;
9005;SDS011;62284;50.702;7.140;2022-10-04T18:00:18;3.70;;;3.13;;
9005;SDS011;62284;50.702;7.140;2022-10-04T18:05:45;5.07;;;4.65;;
9005;SDS011;62284;50.702;7.140;2022-10-04T18:08:18;4.65;;;3.78;;
9005;SDS011;62284;50.702;7.140;2022-10-04T18:11:01;4.07;;;3.78;;
9005;SDS011;62284;50.702;7.140;2022-10-04T18:13:31;4.63;;;4.22;;
9005;SDS011;62284;50.702;7.140;2022-10-04T18:16:07;4.28;;;3.88;;
9005;SDS011;62284;50.702;7.140;2022-10-04T18:18:42;4.20;;;3.80;;
9005;SDS011;62284;50.702;7.140;2022-10-04T18:21:18;3.92;;;3.53;;
9005;SDS011;62284;50.702;7.140;2022-10-04T18:23:56;4.35;;;3.40;;
9005;SDS011;62284;50.702;7.140;2022-10-04T18:26:25;4.03;;;3.72;;
9005;SDS011;62284;50.702;7.140;2022-10-04T18:28:55;4.60;;;3.90;;
9005;SDS011;62284;50.702;7.140;2022-10-04T18:31:29;4.85;;;3.63;;
9005;SDS011;62284;50.702;7.140;2022-10-04T18:34:16;5.80;;;3.92;;
9005;SDS011;62284;50.702;7.140;2022-10-04T18:36:52;4.00;;;3.70;;
9005;SDS011;62284;50.702;7.140;2022-10-04T18:39:30;3.95;;;3.53;;
9005;SDS011;62284;50.702;7.140;2022-10-04T18:42:13;4.45;;;4.05;;
9005;SDS011;62284;50.702;7.140;2022-10-04T18:44:48;4.95;;;3.72;;
9005;SDS011;62284;50.702;7.140;2022-10-04T18:47:26;5.30;;;4.00;;
9005;SDS011;62284;50.702;7.140;2022-10-04T18:49:58;4.07;;;3.70;;
9005;SDS011;62284;50.702;7.140;2022-10-04T18:52:31;3.97;;;3.67;;
9005;SDS011;62284;50.702;7.140;2022-10-04T18:55:10;4.05;;;3.67;;
9005;SDS011;62284;50.702;7.140;2022-10-04T18:57:46;4.63;;;4.07;;
9005;SDS011;62284;50.702;7.140;2022-10-04T19:00:41;4.88;;;3.95;;
9005;SDS011;62284;50.702;7.140;2022-10-04T19:03:32;4.30;;;3.90;;
9005;SDS011;62284;50.702;7.140;2022-10-04T19:06:05;4.20;;;3.90;;